createdAt,value
2022-12-03T00:00:12.454Z,51.20
2022-12-03T00:02:43.113Z,47.22
2022-12-03T00:05:12.074Z,43.70
2022-12-03T00:07:41.200Z,43.88
2022-12-03T00:10:10.589Z,37.67
2022-12-03T00:12:38.601Z,41.78
2022-12-03T00:15:08.357Z,45.10
2022-12-03T00:17:36.524Z,45.92
2022-12-03T00:20:07.365Z,41.17
2022-12-03T00:22:35.668Z,38.88
2022-12-03T00:25:03.842Z,43.38
2022-12-03T00:27:33.971Z,35.05
2022-12-03T00:30:01.971Z,41.67
2022-12-03T00:32:29.964Z,42.95
2022-12-03T00:34:57.955Z,41.47
2022-12-03T00:37:28.603Z,38.65
2022-12-03T00:39:57.591Z,45.83
2022-12-03T00:42:27.690Z,38.88
2022-12-03T00:44:56.687Z,39.25
2022-12-03T00:47:25.800Z,38.47
2022-12-03T00:49:53.768Z,45.30
2022-12-03T00:52:21.943Z,36.90
2022-12-03T00:54:51.936Z,40.45
2022-12-03T00:57:20.169Z,40.78
2022-12-03T00:59:48.139Z,40.63
2022-12-03T01:02:16.207Z,43.38
2022-12-03T01:04:44.484Z,42.40
2022-12-03T01:07:12.804Z,42.08
2022-12-03T01:09:40.988Z,43.72
2022-12-03T01:12:12.056Z,41.78
2022-12-03T01:14:40.020Z,37.67
2022-12-03T01:17:08.033Z,43.00
2022-12-03T01:19:37.588Z,45.40
2022-12-03T01:22:05.984Z,38.17
2022-12-03T01:24:35.479Z,47.78
2022-12-03T01:27:12.658Z,40.40
2022-12-03T01:29:40.635Z,41.28
2022-12-03T01:32:19.804Z,39.88
2022-12-03T01:34:49.377Z,41.70
2022-12-03T01:37:18.173Z,40.67
2022-12-03T01:39:47.144Z,39.33
2022-12-03T01:42:20.185Z,37.67
2022-12-03T01:44:53.849Z,36.47
2022-12-03T01:47:25.599Z,46.17
2022-12-03T01:50:01.160Z,43.78
2022-12-03T01:52:33.039Z,43.72
2022-12-03T01:55:05.030Z,42.80
2022-12-03T01:57:40.984Z,41.55
2022-12-03T02:03:58.970Z,41.72
2022-12-03T02:06:30.786Z,40.92
2022-12-03T02:09:00.303Z,47.05
2022-12-03T02:11:32.586Z,43.30
2022-12-03T02:14:06.973Z,47.13
2022-12-03T02:16:36.113Z,43.55
2022-12-03T02:19:09.762Z,40.25
2022-12-03T02:21:44.951Z,39.40
2022-12-03T02:24:26.114Z,48.20
2022-12-03T02:26:56.533Z,42.85
2022-12-03T02:29:26.215Z,40.03
2022-12-03T02:31:56.337Z,39.72
2022-12-03T02:34:38.195Z,46.13
2022-12-03T02:37:15.346Z,44.97
2022-12-03T02:39:50.677Z,40.00
2022-12-03T02:42:38.908Z,47.83
2022-12-03T02:45:10.468Z,42.65
2022-12-03T02:47:43.156Z,43.67
2022-12-03T02:50:14.042Z,47.75
2022-12-03T02:52:43.635Z,47.72
2022-12-03T02:55:15.197Z,46.53
2022-12-03T02:57:46.276Z,42.72
2022-12-03T03:00:15.513Z,48.17
2022-12-03T03:02:44.323Z,44.38
2022-12-03T03:05:13.126Z,42.08
2022-12-03T03:07:41.760Z,37.20
2022-12-03T03:10:14.851Z,43.92
2022-12-03T03:12:44.506Z,43.35
2022-12-03T03:15:13.226Z,42.63
2022-12-03T03:17:41.578Z,47.30
2022-12-03T03:20:12.999Z,48.08
2022-12-03T03:22:43.968Z,44.42
2022-12-03T03:25:15.843Z,46.80
2022-12-03T03:27:46.378Z,48.85
2022-12-03T03:30:16.424Z,46.53
2022-12-03T03:32:45.468Z,46.70
2022-12-03T03:35:14.754Z,46.30
2022-12-03T03:37:43.394Z,44.60
2022-12-03T03:40:12.645Z,47.92
2022-12-03T03:42:40.894Z,49.15
2022-12-03T03:45:11.113Z,48.17
2022-12-03T03:47:40.771Z,46.08
2022-12-03T03:50:12.783Z,47.70
2022-12-03T03:52:42.862Z,45.22
2022-12-03T03:55:11.904Z,47.92
2022-12-03T03:57:41.332Z,52.03
2022-12-03T04:00:17.281Z,48.88
2022-12-03T04:02:45.700Z,53.10
2022-12-03T04:05:18.229Z,62.85
2022-12-03T04:07:49.031Z,56.38
2022-12-03T04:10:36.798Z,51.00
2022-12-03T04:13:05.819Z,52.55
2022-12-03T04:15:36.229Z,57.20
2022-12-03T04:18:21.885Z,55.45
2022-12-03T04:20:50.241Z,56.63
2022-12-03T04:23:19.349Z,54.78
2022-12-03T04:26:05.031Z,60.55
2022-12-03T04:28:51.205Z,64.35
2022-12-03T04:31:34.520Z,70.70
2022-12-03T04:34:19.947Z,59.90
2022-12-03T04:36:48.116Z,70.40
2022-12-03T04:39:16.108Z,73.93
2022-12-03T04:42:03.499Z,72.20
2022-12-03T04:44:36.499Z,65.10
2022-12-03T04:47:09.637Z,69.43
2022-12-03T04:49:40.224Z,59.83
2022-12-03T04:52:09.435Z,63.72
2022-12-03T04:54:38.941Z,60.80
2022-12-03T04:57:08.356Z,64.28
2022-12-03T04:59:37.368Z,63.78
2022-12-03T05:02:09.105Z,63.20
2022-12-03T05:04:37.436Z,64.40
2022-12-03T05:07:05.545Z,65.18
2022-12-03T05:09:33.801Z,68.45
2022-12-03T05:12:02.000Z,65.95
2022-12-03T05:14:30.346Z,64.82
2022-12-03T05:16:58.459Z,70.60
2022-12-03T05:19:48.429Z,65.47
2022-12-03T05:22:15.444Z,67.25
2022-12-03T05:24:43.455Z,62.38
2022-12-03T05:27:12.469Z,66.45
2022-12-03T05:29:40.520Z,58.88
2022-12-03T05:32:08.528Z,64.07
2022-12-03T05:34:39.974Z,54.30
2022-12-03T05:37:09.109Z,58.88
2022-12-03T05:39:37.103Z,60.80
2022-12-03T05:42:23.678Z,60.45
2022-12-03T05:44:51.945Z,48.92
2022-12-03T05:47:20.144Z,53.00
2022-12-03T05:49:49.487Z,51.55
2022-12-03T05:52:17.509Z,51.72
2022-12-03T05:54:45.504Z,49.90
2022-12-03T05:57:13.529Z,45.85
2022-12-03T05:59:41.506Z,53.78
2022-12-03T06:02:14.339Z,54.63
2022-12-03T06:04:42.411Z,54.92
2022-12-03T06:07:14.439Z,52.47
2022-12-03T06:09:42.602Z,56.42
2022-12-03T06:12:10.587Z,61.83
2022-12-03T06:14:38.517Z,63.00
2022-12-03T06:17:06.497Z,70.63
2022-12-03T06:19:34.539Z,65.85
2022-12-03T06:22:02.679Z,64.13
2022-12-03T06:24:32.249Z,63.95
2022-12-03T06:27:00.316Z,71.60
2022-12-03T06:29:28.720Z,62.60
2022-12-03T06:31:56.873Z,68.50
2022-12-03T06:34:25.005Z,70.70
2022-12-03T06:36:57.159Z,74.35
2022-12-03T06:39:25.271Z,66.80
2022-12-03T06:41:54.752Z,60.30
2022-12-03T06:44:22.852Z,59.65
2022-12-03T06:46:50.941Z,60.83
2022-12-03T06:49:18.959Z,60.45
2022-12-03T06:51:47.041Z,62.28
2022-12-03T06:54:15.518Z,57.70
2022-12-03T06:56:47.503Z,54.50
2022-12-03T06:59:16.884Z,53.10
2022-12-03T07:01:45.691Z,55.88
2022-12-03T07:04:13.731Z,55.35
2022-12-03T07:06:42.391Z,56.15
2022-12-03T07:09:11.083Z,46.22
2022-12-03T07:11:41.114Z,53.67
2022-12-03T07:14:11.591Z,51.53
2022-12-03T07:16:43.409Z,52.10
2022-12-03T07:19:12.384Z,50.50
2022-12-03T07:21:40.802Z,51.40
2022-12-03T07:24:11.203Z,43.55
2022-12-03T07:26:39.710Z,47.97
2022-12-03T07:29:07.691Z,46.95
2022-12-03T07:31:35.820Z,47.03
2022-12-03T07:34:05.290Z,47.97
2022-12-03T07:36:33.389Z,46.50
2022-12-03T07:39:01.478Z,53.75
2022-12-03T07:41:29.479Z,42.42
2022-12-03T07:43:57.706Z,44.83
2022-12-03T07:46:28.031Z,46.97
2022-12-03T07:48:56.370Z,50.92
2022-12-03T07:51:30.606Z,50.95
2022-12-03T07:54:00.293Z,49.00
2022-12-03T07:56:28.538Z,47.25
2022-12-03T07:58:56.970Z,47.58
2022-12-03T08:01:25.206Z,40.40
2022-12-03T08:03:53.207Z,48.22
2022-12-03T08:06:21.281Z,49.25
2022-12-03T08:08:51.789Z,48.70
2022-12-03T08:11:20.045Z,49.78
2022-12-03T08:13:48.162Z,50.97
2022-12-03T08:16:19.201Z,53.22
2022-12-03T08:18:48.671Z,52.28
2022-12-03T08:21:18.570Z,44.88
2022-12-03T08:23:47.623Z,67.32
2022-12-03T08:26:38.904Z,52.35
2022-12-03T08:29:10.403Z,44.60
2022-12-03T08:31:38.878Z,45.33
2022-12-03T08:34:27.858Z,49.05
2022-12-03T08:37:01.758Z,45.15
2022-12-03T08:39:33.597Z,42.20
2022-12-03T08:42:31.032Z,46.25
2022-12-03T08:45:17.802Z,49.33
2022-12-03T08:47:46.953Z,50.33
2022-12-03T08:50:28.406Z,47.70
2022-12-03T08:53:00.916Z,47.55
2022-12-03T08:55:36.612Z,57.60
2022-12-03T08:58:22.799Z,52.72
2022-12-03T09:00:59.142Z,51.60
2022-12-03T09:03:32.357Z,59.42
2022-12-03T09:06:00.350Z,56.45
2022-12-03T09:08:29.697Z,46.65
2022-12-03T09:10:57.841Z,47.47
2022-12-03T09:13:27.216Z,50.92
2022-12-03T09:15:55.255Z,50.45
2022-12-03T09:18:23.669Z,55.65
2022-12-03T09:20:51.706Z,54.03
2022-12-03T09:23:19.741Z,54.03
2022-12-03T09:25:48.007Z,59.10
2022-12-03T09:28:16.090Z,55.15
2022-12-03T09:30:45.541Z,55.70
2022-12-03T09:33:14.141Z,52.70
2022-12-03T09:35:42.088Z,46.15
2022-12-03T09:38:10.086Z,50.35
2022-12-03T09:40:39.284Z,51.85
2022-12-03T09:43:07.557Z,47.78
2022-12-03T09:45:35.829Z,48.03
2022-12-03T09:48:07.666Z,51.10
2022-12-03T09:50:38.970Z,49.58
2022-12-03T09:53:07.062Z,43.33
2022-12-03T09:55:35.255Z,52.30
2022-12-03T09:58:03.686Z,50.75
2022-12-03T10:00:31.918Z,55.85
2022-12-03T10:03:03.868Z,55.05
2022-12-03T10:05:35.035Z,45.90
2022-12-03T10:08:09.075Z,52.38
2022-12-03T10:10:38.782Z,45.58
2022-12-03T10:13:08.303Z,52.05
2022-12-03T10:15:38.151Z,52.13
2022-12-03T10:18:17.334Z,49.20
2022-12-03T10:20:46.975Z,46.45
2022-12-03T10:23:22.834Z,48.72
2022-12-03T10:25:56.517Z,49.38
2022-12-03T10:28:30.414Z,52.17
2022-12-03T10:31:00.062Z,46.92
2022-12-03T10:33:33.406Z,45.20
2022-12-03T10:36:23.535Z,49.60
2022-12-03T10:39:13.713Z,48.78
2022-12-03T10:41:43.188Z,48.60
2022-12-03T10:44:16.848Z,47.38
2022-12-03T10:46:45.935Z,48.85
2022-12-03T10:49:17.446Z,53.28
2022-12-03T10:51:48.791Z,44.40
2022-12-03T10:54:20.539Z,42.53
2022-12-03T10:56:49.731Z,47.50
2022-12-03T10:59:22.161Z,52.83
2022-12-03T11:01:51.475Z,47.97
2022-12-03T11:04:23.389Z,43.22
2022-12-03T11:06:52.819Z,46.03
2022-12-03T11:09:25.515Z,50.17
2022-12-03T11:11:54.517Z,42.33
2022-12-03T11:15:06.500Z,37.63
2022-12-03T11:17:47.315Z,39.13
2022-12-03T11:20:52.752Z,37.55
2022-12-03T11:24:18.602Z,40.83
2022-12-03T11:27:16.282Z,39.28
2022-12-03T11:29:58.784Z,41.80
2022-12-03T11:33:07.452Z,43.25
2022-12-03T11:36:15.432Z,40.30
2022-12-03T11:38:56.222Z,40.33
2022-12-03T11:41:28.005Z,39.63
2022-12-03T11:44:30.528Z,37.13
2022-12-03T11:47:13.742Z,40.22
2022-12-03T11:49:49.189Z,34.17
2022-12-03T11:52:24.101Z,37.47
2022-12-03T11:54:58.971Z,37.83
2022-12-03T11:57:34.094Z,37.72
2022-12-03T12:00:06.288Z,35.30
2022-12-03T12:02:40.076Z,34.50
2022-12-03T12:05:23.833Z,33.50
2022-12-03T12:07:52.325Z,38.45
2022-12-03T12:10:46.707Z,33.15
2022-12-03T12:13:58.166Z,34.90
2022-12-03T12:16:50.554Z,29.10
2022-12-03T12:19:40.140Z,28.25
2022-12-03T12:22:32.159Z,37.58
2022-12-03T12:25:01.975Z,28.40
2022-12-03T12:27:38.280Z,31.17
2022-12-03T12:30:09.135Z,31.58
2022-12-03T12:32:44.992Z,30.77
2022-12-03T12:35:21.729Z,27.80
2022-12-03T12:37:58.993Z,31.35
2022-12-03T12:40:30.422Z,31.48
2022-12-03T12:43:08.233Z,31.55
2022-12-03T12:45:42.746Z,31.23
2022-12-03T12:48:18.427Z,29.95
2022-12-03T12:50:48.313Z,31.45
2022-12-03T12:53:24.093Z,33.53
2022-12-03T12:55:58.198Z,28.90
2022-12-03T12:58:31.784Z,27.35
2022-12-03T13:01:05.185Z,30.20
2022-12-03T13:03:36.095Z,30.55
2022-12-03T13:06:04.905Z,29.60
2022-12-03T13:08:34.746Z,28.02
2022-12-03T13:11:03.373Z,36.67
2022-12-03T13:13:43.724Z,33.67
2022-12-03T13:16:16.340Z,37.67
2022-12-03T13:18:48.042Z,34.42
2022-12-03T13:21:25.766Z,42.83
2022-12-03T13:23:56.004Z,30.55
2022-12-03T13:26:37.715Z,35.88
2022-12-03T13:29:16.982Z,28.27
2022-12-03T13:31:52.293Z,29.38
2022-12-03T13:34:23.424Z,31.88
2022-12-03T13:36:57.519Z,30.63
2022-12-03T13:39:35.419Z,37.58
2022-12-03T13:42:37.223Z,28.42
2022-12-03T13:45:25.804Z,29.63
2022-12-03T13:47:56.833Z,28.05
2022-12-03T13:50:32.920Z,27.92
2022-12-03T13:53:02.625Z,27.70
2022-12-03T13:55:32.602Z,26.00
2022-12-03T13:58:00.681Z,27.10
2022-12-03T14:00:30.077Z,29.30
2022-12-03T14:02:58.160Z,24.27
2022-12-03T14:05:26.250Z,28.15
2022-12-03T14:07:54.684Z,28.58
2022-12-03T14:10:22.786Z,26.65
2022-12-03T14:12:53.000Z,24.40
2022-12-03T14:15:21.813Z,27.50
2022-12-03T14:17:51.387Z,25.65
2022-12-03T14:20:19.844Z,29.08
2022-12-03T14:22:47.794Z,24.70
2022-12-03T14:25:16.605Z,25.73
2022-12-03T14:27:45.081Z,24.48
2022-12-03T14:30:13.917Z,25.00
2022-12-03T14:32:42.041Z,27.55
2022-12-03T14:35:11.763Z,32.78
2022-12-03T14:37:39.888Z,25.40
2022-12-03T14:40:09.534Z,29.67
2022-12-03T14:42:40.274Z,24.85
2022-12-03T14:45:09.737Z,25.05
2022-12-03T14:47:38.055Z,22.55
2022-12-03T14:50:08.018Z,24.02
2022-12-03T14:52:40.559Z,23.58
2022-12-03T14:55:09.563Z,25.88
2022-12-03T14:57:38.306Z,24.92
2022-12-03T15:00:07.930Z,23.83
2022-12-03T15:02:35.979Z,26.48
2022-12-03T15:05:04.475Z,24.75
2022-12-03T15:07:32.908Z,20.58
2022-12-03T15:10:02.672Z,20.52
2022-12-03T15:12:31.740Z,21.20
2022-12-03T15:14:59.924Z,23.25
2022-12-03T15:17:31.802Z,22.70
2022-12-03T15:20:00.449Z,23.08
2022-12-03T15:22:30.658Z,24.10
2022-12-03T15:24:58.812Z,28.70
2022-12-03T15:27:28.200Z,22.75
2022-12-03T15:29:56.443Z,25.63
2022-12-03T15:32:24.956Z,28.98
2022-12-03T15:34:52.966Z,26.75
2022-12-03T15:37:21.031Z,24.35
2022-12-03T15:39:49.385Z,25.45
2022-12-03T15:42:17.944Z,23.90
2022-12-03T15:44:48.538Z,26.20
2022-12-03T15:47:16.625Z,24.42
2022-12-03T15:49:44.742Z,23.48
2022-12-03T15:52:12.809Z,25.77
2022-12-03T15:54:41.003Z,24.35
2022-12-03T15:57:09.090Z,29.60
2022-12-03T15:59:37.166Z,26.98
2022-12-03T16:02:06.767Z,24.17
2022-12-03T16:04:35.091Z,21.67
2022-12-03T16:07:03.112Z,25.45
2022-12-03T16:09:31.175Z,37.00
2022-12-03T16:12:00.349Z,22.77
2022-12-03T16:14:28.402Z,25.98
2022-12-03T16:16:56.516Z,22.40
2022-12-03T16:19:26.054Z,26.25
2022-12-03T16:21:54.490Z,21.08
2022-12-03T16:24:24.676Z,21.52
2022-12-03T16:26:52.792Z,24.88
2022-12-03T16:29:20.753Z,24.25
2022-12-03T16:31:48.851Z,28.08
2022-12-03T16:34:16.970Z,24.15
2022-12-03T16:36:46.726Z,27.75
2022-12-03T16:39:16.464Z,26.95
2022-12-03T16:41:45.114Z,26.58
2022-12-03T16:44:30.564Z,28.15
2022-12-03T16:46:58.923Z,31.30
2022-12-03T16:49:26.908Z,29.33
2022-12-03T16:51:56.297Z,29.42
2022-12-03T16:54:24.385Z,28.35
2022-12-03T16:56:52.782Z,28.67
2022-12-03T16:59:20.856Z,30.13
2022-12-03T17:01:49.566Z,28.42
2022-12-03T17:04:17.949Z,25.80
2022-12-03T17:06:46.383Z,28.08
2022-12-03T17:09:16.204Z,29.13
2022-12-03T17:11:44.261Z,28.58
2022-12-03T17:14:12.585Z,25.23
2022-12-03T17:16:40.762Z,28.23
2022-12-03T17:19:08.865Z,24.10
2022-12-03T17:21:36.973Z,23.83
2022-12-03T17:24:05.709Z,27.20
2022-12-03T17:26:35.188Z,23.98
2022-12-03T17:29:03.258Z,30.40
2022-12-03T17:31:32.947Z,24.33
2022-12-03T17:34:03.948Z,24.85
2022-12-03T17:36:31.998Z,25.92
2022-12-03T17:39:00.115Z,27.92
2022-12-03T17:41:28.625Z,25.00
2022-12-03T17:43:58.196Z,27.40
2022-12-03T17:46:26.363Z,60.63
2022-12-03T17:48:54.532Z,115.32
2022-12-03T17:51:24.465Z,43.45
2022-12-03T17:53:52.938Z,26.98
2022-12-03T17:56:21.141Z,27.83
2022-12-03T17:58:49.179Z,25.77
2022-12-03T18:01:19.849Z,30.42
2022-12-03T18:03:48.329Z,30.70
2022-12-03T18:06:16.533Z,30.35
2022-12-03T18:08:44.534Z,33.78
2022-12-03T18:11:13.027Z,33.20
2022-12-03T18:13:41.005Z,33.95
2022-12-03T18:16:09.584Z,31.20
2022-12-03T18:18:41.124Z,30.65
2022-12-03T18:21:09.329Z,31.65
2022-12-03T18:23:37.600Z,32.65
2022-12-03T18:26:06.788Z,33.45
2022-12-03T18:28:34.987Z,34.97
2022-12-03T18:31:03.702Z,37.58
2022-12-03T18:33:31.760Z,34.25
2022-12-03T18:36:01.313Z,35.33
2022-12-03T18:38:32.178Z,33.40
2022-12-03T18:41:00.694Z,33.40
2022-12-03T18:43:29.290Z,39.55
2022-12-03T18:46:03.653Z,39.70
2022-12-03T18:48:31.646Z,37.67
2022-12-03T18:51:01.771Z,35.58
2022-12-03T18:53:30.198Z,38.45
2022-12-03T18:55:58.675Z,36.67
2022-12-03T18:58:27.154Z,39.33
2022-12-03T19:00:55.159Z,38.72
2022-12-03T19:03:23.276Z,41.10
2022-12-03T19:05:51.376Z,41.05
2022-12-03T19:08:20.866Z,40.95
2022-12-03T19:10:56.878Z,41.33
2022-12-03T19:13:25.820Z,38.45
2022-12-03T19:15:57.107Z,37.47
2022-12-03T19:18:25.535Z,41.85
2022-12-03T19:20:53.908Z,39.85
2022-12-03T19:23:23.401Z,36.83
2022-12-03T19:26:03.863Z,37.13
2022-12-03T19:28:31.920Z,38.53
2022-12-03T19:31:01.366Z,37.13
2022-12-03T19:33:30.569Z,40.30
2022-12-03T19:35:59.647Z,42.45
2022-12-03T19:38:30.791Z,41.50
2022-12-03T19:41:02.663Z,42.35
2022-12-03T19:43:31.807Z,45.20
2022-12-03T19:46:04.799Z,44.63
2022-12-03T19:48:33.559Z,42.60
2022-12-03T19:51:32.465Z,42.85
2022-12-03T19:53:51.615Z,49.97
2022-12-03T19:56:20.488Z,40.30
2022-12-03T19:58:55.941Z,43.78
2022-12-03T20:01:26.438Z,41.75
2022-12-03T20:03:56.120Z,38.83
2022-12-03T20:06:26.279Z,42.38
2022-12-03T20:08:59.189Z,48.28
2022-12-03T20:11:29.994Z,47.22
2022-12-03T20:13:59.714Z,51.13
2022-12-03T20:16:29.261Z,52.67
2022-12-03T20:19:04.967Z,49.45
2022-12-03T20:21:37.762Z,52.45
2022-12-03T20:24:08.005Z,51.75
2022-12-03T20:26:36.149Z,47.20
2022-12-03T20:29:04.439Z,53.85
2022-12-03T20:31:33.279Z,50.90
2022-12-03T20:34:03.193Z,49.83
2022-12-03T20:36:33.165Z,46.28
2022-12-03T20:39:03.017Z,49.67
2022-12-03T20:41:35.802Z,50.70
2022-12-03T20:44:06.075Z,47.97
2022-12-03T20:46:39.053Z,48.90
2022-12-03T20:49:07.193Z,51.90
2022-12-03T20:51:35.576Z,51.15
2022-12-03T20:54:04.668Z,51.97
2022-12-03T20:56:36.137Z,49.72
2022-12-03T20:59:07.392Z,51.72
2022-12-03T21:01:38.523Z,51.10
2022-12-03T21:04:09.398Z,52.42
2022-12-03T21:06:38.878Z,52.42
2022-12-03T21:09:08.181Z,50.55
2022-12-03T21:11:41.638Z,48.28
2022-12-03T21:14:11.254Z,48.90
2022-12-03T21:19:31.017Z,51.25
2022-12-03T21:21:59.715Z,45.55
2022-12-03T21:24:30.279Z,44.47
2022-12-03T21:27:00.009Z,43.17
2022-12-03T21:29:28.526Z,45.60
2022-12-03T21:31:56.725Z,46.28
2022-12-03T21:34:25.115Z,48.63
2022-12-03T21:36:53.300Z,47.03
2022-12-03T21:39:21.770Z,42.03
2022-12-03T21:42:34.252Z,48.28
2022-12-03T21:44:39.926Z,44.70
2022-12-03T21:47:13.996Z,44.17
2022-12-03T21:49:43.689Z,46.72
2022-12-03T21:52:11.843Z,51.00
2022-12-03T21:54:40.004Z,52.45
2022-12-03T21:57:08.406Z,49.08
2022-12-03T21:59:36.728Z,46.55
2022-12-03T22:02:06.540Z,47.10
2022-12-03T22:04:34.993Z,45.20
2022-12-03T22:07:03.377Z,50.33
2022-12-03T22:09:32.047Z,46.35
2022-12-03T22:12:01.069Z,46.95
2022-12-03T22:14:29.595Z,44.97
2022-12-03T22:16:57.683Z,45.58
2022-12-03T22:19:29.950Z,43.05
2022-12-03T22:22:00.094Z,41.03
2022-12-03T22:24:28.169Z,46.83
2022-12-03T22:26:56.646Z,45.20
2022-12-03T22:29:24.951Z,51.58
2022-12-03T22:31:53.413Z,49.45
2022-12-03T22:34:21.715Z,48.67
2022-12-03T22:36:51.354Z,46.05
2022-12-03T22:39:19.907Z,58.33
2022-12-03T22:41:48.075Z,49.63
2022-12-03T22:44:16.210Z,48.92
2022-12-03T22:46:44.419Z,47.88
2022-12-03T22:49:18.098Z,52.13
2022-12-03T22:51:46.779Z,46.88
2022-12-03T22:54:20.925Z,55.00
2022-12-03T22:56:52.051Z,49.30
2022-12-03T22:59:20.239Z,49.03
2022-12-03T23:01:52.519Z,49.35
2022-12-03T23:04:20.576Z,51.95
2022-12-03T23:06:48.661Z,53.28
2022-12-03T23:09:18.180Z,49.20
2022-12-03T23:11:46.355Z,51.92
2022-12-03T23:14:14.684Z,48.25
2022-12-03T23:16:42.808Z,45.80
2022-12-03T23:19:10.775Z,49.13
2022-12-03T23:21:38.847Z,47.25
2022-12-03T23:24:07.929Z,52.75
2022-12-03T23:26:39.528Z,53.10
2022-12-03T23:29:08.639Z,50.42
2022-12-03T23:31:37.285Z,48.25
2022-12-03T23:34:05.619Z,48.97
2022-12-03T23:36:34.476Z,44.80
2022-12-03T23:39:02.612Z,41.13
2022-12-03T23:41:30.645Z,47.83
2022-12-03T23:44:00.160Z,48.00
2022-12-03T23:46:28.708Z,47.63
2022-12-03T23:48:58.536Z,48.97
2022-12-03T23:51:26.956Z,49.92
2022-12-03T23:53:56.503Z,49.03
2022-12-03T23:56:26.425Z,50.10
2022-12-03T23:58:56.466Z,50.40
